sensor_id;sensor_type;location;lat;lon;timestamp;pressure;altitude;pressure_sealevel;temperature;humidity
13732;BME280;6937;56.096;12.664;2022-10-22T00:01:16;101968.28;;;12.35;100.00
13732;BME280;6937;56.096;12.664;2022-10-22T00:03:41;101968.28;;;12.35;100.00
13732;BME280;6937;56.096;12.664;2022-10-22T00:06:07;101926.66;;;12.29;100.00
13732;BME280;6937;56.096;12.664;2022-10-22T00:08:32;101929.16;;;12.32;100.00
13732;BME280;6937;56.096;12.664;2022-10-22T00:10:58;101927.22;;;12.34;100.00
13732;BME280;6937;56.096;12.664;2022-10-22T00:13:23;101898.78;;;12.32;100.00
13732;BME280;6937;56.096;12.664;2022-10-22T00:15:49;101881.84;;;12.31;100.00
13732;BME280;6937;56.096;12.664;2022-10-22T00:18:14;101873.03;;;12.29;100.00
13732;BME280;6937;56.096;12.664;2022-10-22T00:20:39;101878.22;;;12.32;100.00
13732;BME280;6937;56.096;12.664;2022-10-22T00:23:05;101859.25;;;12.21;100.00
13732;BME280;6937;56.096;12.664;2022-10-22T00:25:30;101868.50;;;12.30;100.00
13732;BME280;6937;56.096;12.664;2022-10-22T00:27:58;101861.53;;;12.27;100.00
13732;BME280;6937;56.096;12.664;2022-10-22T00:30:23;101885.38;;;12.32;100.00
13732;BME280;6937;56.096;12.664;2022-10-22T00:32:48;101911.03;;;12.36;100.00
13732;BME280;6937;56.096;12.664;2022-10-22T00:35:14;101895.91;;;12.35;100.00
13732;BME280;6937;56.096;12.664;2022-10-22T00:37:39;101912.38;;;12.29;100.00
13732;BME280;6937;56.096;12.664;2022-10-22T00:40:05;101864.47;;;11.94;100.00
13732;BME280;6937;56.096;12.664;2022-10-22T00:42:31;101918.28;;;12.20;100.00
13732;BME280;6937;56.096;12.664;2022-10-22T00:45:14;101912.66;;;12.38;100.00
13732;BME280;6937;56.096;12.664;2022-10-22T00:47:45;101920.16;;;12.33;100.00
13732;BME280;6937;56.096;12.664;2022-10-22T00:50:16;101954.53;;;12.41;100.00
13732;BME280;6937;56.096;12.664;2022-10-22T00:52:43;101923.50;;;12.37;100.00
13732;BME280;6937;56.096;12.664;2022-10-22T00:55:09;101947.03;;;12.32;100.00
13732;BME280;6937;56.096;12.664;2022-10-22T00:57:35;101889.34;;;11.96;100.00
13732;BME280;6937;56.096;12.664;2022-10-22T01:00:00;101955.69;;;12.37;100.00
13732;BME280;6937;56.096;12.664;2022-10-22T01:02:26;101958.84;;;12.43;100.00
13732;BME280;6937;56.096;12.664;2022-10-22T01:04:52;101952.22;;;12.35;100.00
13732;BME280;6937;56.096;12.664;2022-10-22T01:07:20;101953.38;;;12.45;100.00
13732;BME280;6937;56.096;12.664;2022-10-22T01:09:54;101952.53;;;12.44;100.00
13732;BME280;6937;56.096;12.664;2022-10-22T01:18:07;101930.53;;;12.09;100.00
13732;BME280;6937;56.096;12.664;2022-10-22T01:24:08;101896.44;;;11.97;100.00
13732;BME280;6937;56.096;12.664;2022-10-22T01:27:08;101987.09;;;12.49;100.00
13732;BME280;6937;56.096;12.664;2022-10-22T01:29:39;101958.84;;;12.43;100.00
13732;BME280;6937;56.096;12.664;2022-10-22T01:32:22;101978.97;;;12.50;100.00
13732;BME280;6937;56.096;12.664;2022-10-22T01:34:51;101899.69;;;12.02;100.00
13732;BME280;6937;56.096;12.664;2022-10-22T01:37:20;101979.81;;;12.51;100.00
13732;BME280;6937;56.096;12.664;2022-10-22T01:39:47;101980.78;;;12.50;100.00
13732;BME280;6937;56.096;12.664;2022-10-22T01:42:13;101941.53;;;12.19;100.00
13732;BME280;6937;56.096;12.664;2022-10-22T01:44:39;101980.84;;;12.34;100.00
13732;BME280;6937;56.096;12.664;2022-10-22T01:47:23;101908.50;;;12.04;100.00
13732;BME280;6937;56.096;12.664;2022-10-22T01:52:54;102036.91;;;12.53;100.00
13732;BME280;6937;56.096;12.664;2022-10-22T01:55:27;102030.59;;;12.54;100.00
13732;BME280;6937;56.096;12.664;2022-10-22T02:00:43;101962.88;;;12.06;100.00
13732;BME280;6937;56.096;12.664;2022-10-22T02:03:19;102033.81;;;12.45;100.00
13732;BME280;6937;56.096;12.664;2022-10-22T02:05:58;102032.09;;;12.44;100.00
13732;BME280;6937;56.096;12.664;2022-10-22T02:08:31;102067.94;;;12.57;100.00
13732;BME280;6937;56.096;12.664;2022-10-22T02:10:58;102046.75;;;12.52;100.00
13732;BME280;6937;56.096;12.664;2022-10-22T02:13:30;102032.44;;;12.38;100.00
13732;BME280;6937;56.096;12.664;2022-10-22T02:15:58;102070.75;;;12.55;100.00
13732;BME280;6937;56.096;12.664;2022-10-22T02:18:27;102033.31;;;12.38;100.00
13732;BME280;6937;56.096;12.664;2022-10-22T02:20:55;102023.88;;;12.17;100.00
13732;BME280;6937;56.096;12.664;2022-10-22T02:23:21;102082.22;;;12.57;100.00
13732;BME280;6937;56.096;12.664;2022-10-22T02:25:52;102070.22;;;12.49;100.00
13732;BME280;6937;56.096;12.664;2022-10-22T02:28:25;102098.22;;;12.59;100.00
13732;BME280;6937;56.096;12.664;2022-10-22T02:31:02;102043.59;;;12.46;100.00
13732;BME280;6937;56.096;12.664;2022-10-22T02:33:33;102034.13;;;12.54;100.00
13732;BME280;6937;56.096;12.664;2022-10-22T02:36:02;102074.09;;;12.59;100.00
13732;BME280;6937;56.096;12.664;2022-10-22T02:38:28;102058.16;;;12.56;100.00
13732;BME280;6937;56.096;12.664;2022-10-22T02:40:54;102026.56;;;12.47;100.00
13732;BME280;6937;56.096;12.664;2022-10-22T02:43:23;102032.78;;;12.47;100.00
13732;BME280;6937;56.096;12.664;2022-10-22T02:45:48;101970.63;;;12.11;100.00
13732;BME280;6937;56.096;12.664;2022-10-22T02:48:14;102006.69;;;12.35;100.00
13732;BME280;6937;56.096;12.664;2022-10-22T02:50:39;101966.66;;;12.18;100.00
13732;BME280;6937;56.096;12.664;2022-10-22T02:53:04;102011.69;;;12.41;100.00
13732;BME280;6937;56.096;12.664;2022-10-22T02:55:30;102055.66;;;12.53;100.00
13732;BME280;6937;56.096;12.664;2022-10-22T02:57:55;102043.50;;;12.47;100.00
13732;BME280;6937;56.096;12.664;2022-10-22T03:00:21;102046.69;;;12.54;100.00
13732;BME280;6937;56.096;12.664;2022-10-22T03:02:46;102061.63;;;12.58;100.00
13732;BME280;6937;56.096;12.664;2022-10-22T03:05:12;102022.31;;;12.43;100.00
13732;BME280;6937;56.096;12.664;2022-10-22T03:07:37;101954.66;;;12.09;100.00
13732;BME280;6937;56.096;12.664;2022-10-22T03:10:03;101991.88;;;12.44;100.00
13732;BME280;6937;56.096;12.664;2022-10-22T03:12:29;102015.91;;;12.45;100.00
13732;BME280;6937;56.096;12.664;2022-10-22T03:14:54;102033.66;;;12.62;100.00
13732;BME280;6937;56.096;12.664;2022-10-22T03:17:20;101989.97;;;12.60;100.00
13732;BME280;6937;56.096;12.664;2022-10-22T03:19:45;101995.63;;;12.55;100.00
13732;BME280;6937;56.096;12.664;2022-10-22T03:22:18;101892.22;;;12.07;100.00
13732;BME280;6937;56.096;12.664;2022-10-22T03:24:48;101879.22;;;12.16;100.00
13732;BME280;6937;56.096;12.664;2022-10-22T03:27:17;101966.03;;;12.57;100.00
13732;BME280;6937;56.096;12.664;2022-10-22T03:29:44;101963.25;;;12.58;100.00
13732;BME280;6937;56.096;12.664;2022-10-22T03:32:11;101961.34;;;12.60;100.00
13732;BME280;6937;56.096;12.664;2022-10-22T03:34:37;101927.81;;;12.53;100.00
13732;BME280;6937;56.096;12.664;2022-10-22T03:37:02;101890.94;;;12.15;100.00
13732;BME280;6937;56.096;12.664;2022-10-22T03:39:29;101902.81;;;12.25;100.00
13732;BME280;6937;56.096;12.664;2022-10-22T03:41:56;101966.63;;;12.62;100.00
13732;BME280;6937;56.096;12.664;2022-10-22T03:44:22;101958.84;;;12.57;100.00
13732;BME280;6937;56.096;12.664;2022-10-22T03:46:48;101937.88;;;12.50;100.00
13732;BME280;6937;56.096;12.664;2022-10-22T03:49:13;101973.13;;;12.58;100.00
13732;BME280;6937;56.096;12.664;2022-10-22T03:51:38;101903.94;;;12.21;100.00
13732;BME280;6937;56.096;12.664;2022-10-22T03:54:04;101950.88;;;12.56;100.00
13732;BME280;6937;56.096;12.664;2022-10-22T03:56:30;101931.44;;;12.38;100.00
13732;BME280;6937;56.096;12.664;2022-10-22T03:58:57;101887.47;;;12.13;100.00
13732;BME280;6937;56.096;12.664;2022-10-22T04:01:24;101963.06;;;12.62;100.00
13732;BME280;6937;56.096;12.664;2022-10-22T04:03:49;101870.44;;;12.14;100.00
13732;BME280;6937;56.096;12.664;2022-10-22T04:06:15;101925.03;;;12.55;100.00
13732;BME280;6937;56.096;12.664;2022-10-22T04:08:42;101839.50;;;12.08;100.00
13732;BME280;6937;56.096;12.664;2022-10-22T04:11:08;101888.44;;;12.54;100.00
13732;BME280;6937;56.096;12.664;2022-10-22T04:13:34;101903.59;;;12.55;100.00
13732;BME280;6937;56.096;12.664;2022-10-22T04:16:26;101889.41;;;12.53;100.00
13732;BME280;6937;56.096;12.664;2022-10-22T04:18:55;101897.44;;;12.53;100.00
13732;BME280;6937;56.096;12.664;2022-10-22T04:21:21;101856.84;;;12.45;100.00
13732;BME280;6937;56.096;12.664;2022-10-22T04:23:48;101883.94;;;12.54;100.00
13732;BME280;6937;56.096;12.664;2022-10-22T04:26:15;101886.53;;;12.56;100.00
13732;BME280;6937;56.096;12.664;2022-10-22T04:28:41;101868.72;;;12.55;100.00
13732;BME280;6937;56.096;12.664;2022-10-22T04:31:11;101864.22;;;12.55;100.00
13732;BME280;6937;56.096;12.664;2022-10-22T04:33:38;101860.75;;;12.53;100.00
13732;BME280;6937;56.096;12.664;2022-10-22T04:36:08;101841.63;;;12.59;100.00
13732;BME280;6937;56.096;12.664;2022-10-22T04:38:35;101745.34;;;12.14;100.00
13732;BME280;6937;56.096;12.664;2022-10-22T04:41:12;101807.53;;;12.47;100.00
13732;BME280;6937;56.096;12.664;2022-10-22T04:43:39;101845.34;;;12.57;100.00
13732;BME280;6937;56.096;12.664;2022-10-22T04:46:05;101816.25;;;12.51;100.00
13732;BME280;6937;56.096;12.664;2022-10-22T04:48:34;101836.63;;;12.53;100.00
13732;BME280;6937;56.096;12.664;2022-10-22T04:50:59;101825.16;;;12.51;100.00
13732;BME280;6937;56.096;12.664;2022-10-22T04:53:25;101817.09;;;12.51;100.00
13732;BME280;6937;56.096;12.664;2022-10-22T04:55:51;101824.97;;;12.54;100.00
13732;BME280;6937;56.096;12.664;2022-10-22T04:58:16;101772.47;;;12.50;100.00
13732;BME280;6937;56.096;12.664;2022-10-22T05:00:41;101773.44;;;12.49;100.00
13732;BME280;6937;56.096;12.664;2022-10-22T05:03:06;101736.88;;;12.34;100.00
13732;BME280;6937;56.096;12.664;2022-10-22T05:05:32;101744.16;;;12.32;100.00
13732;BME280;6937;56.096;12.664;2022-10-22T05:07:57;101781.47;;;12.49;100.00
13732;BME280;6937;56.096;12.664;2022-10-22T05:10:23;101739.06;;;12.42;100.00
13732;BME280;6937;56.096;12.664;2022-10-22T05:12:48;101732.53;;;12.46;100.00
13732;BME280;6937;56.096;12.664;2022-10-22T05:15:13;101735.03;;;12.49;100.00
13732;BME280;6937;56.096;12.664;2022-10-22T05:17:39;101700.13;;;12.36;100.00
13732;BME280;6937;56.096;12.664;2022-10-22T05:20:04;101691.78;;;12.41;100.00
13732;BME280;6937;56.096;12.664;2022-10-22T05:22:30;101676.16;;;12.47;100.00
13732;BME280;6937;56.096;12.664;2022-10-22T05:24:57;101651.94;;;12.35;100.00
13732;BME280;6937;56.096;12.664;2022-10-22T05:27:22;101590.41;;;12.06;100.00
13732;BME280;6937;56.096;12.664;2022-10-22T05:29:47;101611.44;;;12.39;100.00
13732;BME280;6937;56.096;12.664;2022-10-22T05:32:13;101663.84;;;12.57;100.00
13732;BME280;6937;56.096;12.664;2022-10-22T05:34:38;101636.94;;;12.59;100.00
13732;BME280;6937;56.096;12.664;2022-10-22T05:37:03;101536.50;;;12.11;100.00
13732;BME280;6937;56.096;12.664;2022-10-22T05:39:29;101517.94;;;12.08;100.00
13732;BME280;6937;56.096;12.664;2022-10-22T05:41:54;101585.97;;;12.59;100.00
13732;BME280;6937;56.096;12.664;2022-10-22T05:44:20;101586.94;;;12.58;100.00
13732;BME280;6937;56.096;12.664;2022-10-22T05:46:45;101486.22;;;12.02;100.00
13732;BME280;6937;56.096;12.664;2022-10-22T05:49:13;101564.84;;;12.54;100.00
13732;BME280;6937;56.096;12.664;2022-10-22T05:51:39;101545.06;;;12.43;100.00
13732;BME280;6937;56.096;12.664;2022-10-22T05:54:07;101482.47;;;12.04;100.00
13732;BME280;6937;56.096;12.664;2022-10-22T05:56:34;101550.66;;;12.52;100.00
13732;BME280;6937;56.096;12.664;2022-10-22T05:58:59;101549.59;;;12.55;100.00
13732;BME280;6937;56.096;12.664;2022-10-22T06:01:28;101526.53;;;12.52;100.00
13732;BME280;6937;56.096;12.664;2022-10-22T06:04:01;101547.44;;;12.60;100.00
13732;BME280;6937;56.096;12.664;2022-10-22T06:06:28;101549.75;;;12.66;100.00
13732;BME280;6937;56.096;12.664;2022-10-22T06:08:55;101514.97;;;12.65;100.00
13732;BME280;6937;56.096;12.664;2022-10-22T06:11:23;101491.91;;;12.62;100.00
13732;BME280;6937;56.096;12.664;2022-10-22T06:13:50;101495.22;;;12.66;100.00
13732;BME280;6937;56.096;12.664;2022-10-22T06:16:16;101493.28;;;12.68;100.00
13732;BME280;6937;56.096;12.664;2022-10-22T06:18:41;101497.81;;;12.67;100.00
13732;BME280;6937;56.096;12.664;2022-10-22T06:21:09;101505.75;;;12.69;100.00
13732;BME280;6937;56.096;12.664;2022-10-22T06:23:35;101520.97;;;12.68;100.00
13732;BME280;6937;56.096;12.664;2022-10-22T06:26:01;101527.97;;;12.71;100.00
13732;BME280;6937;56.096;12.664;2022-10-22T06:28:27;101569.81;;;12.73;100.00
13732;BME280;6937;56.096;12.664;2022-10-22T06:30:53;101578.59;;;12.75;100.00
13732;BME280;6937;56.096;12.664;2022-10-22T06:33:18;101552.94;;;12.58;100.00
13732;BME280;6937;56.096;12.664;2022-10-22T06:35:44;101496.47;;;12.22;100.00
13732;BME280;6937;56.096;12.664;2022-10-22T06:38:10;101559.28;;;12.70;100.00
13732;BME280;6937;56.096;12.664;2022-10-22T06:40:36;101557.66;;;12.68;100.00
13732;BME280;6937;56.096;12.664;2022-10-22T06:43:01;101469.66;;;12.35;100.00
13732;BME280;6937;56.096;12.664;2022-10-22T06:45:27;101524.22;;;12.73;100.00
13732;BME280;6937;56.096;12.664;2022-10-22T06:47:53;101465.72;;;12.66;100.00
13732;BME280;6937;56.096;12.664;2022-10-22T06:50:19;101428.38;;;12.75;100.00
13732;BME280;6937;56.096;12.664;2022-10-22T06:52:45;101418.50;;;12.76;100.00
13732;BME280;6937;56.096;12.664;2022-10-22T06:55:10;101363.06;;;12.64;100.00
13732;BME280;6937;56.096;12.664;2022-10-22T06:57:35;101371.63;;;12.81;100.00
13732;BME280;6937;56.096;12.664;2022-10-22T07:00:03;101318.22;;;12.78;100.00
13732;BME280;6937;56.096;12.664;2022-10-22T07:02:29;101309.16;;;12.79;100.00
13732;BME280;6937;56.096;12.664;2022-10-22T07:04:54;101268.53;;;12.73;100.00
13732;BME280;6937;56.096;12.664;2022-10-22T07:07:20;101188.34;;;12.33;100.00
13732;BME280;6937;56.096;12.664;2022-10-22T07:09:45;101225.16;;;12.79;100.00
13732;BME280;6937;56.096;12.664;2022-10-22T07:12:13;101118.81;;;12.67;100.00
13732;BME280;6937;56.096;12.664;2022-10-22T07:14:38;101098.72;;;12.72;100.00
13732;BME280;6937;56.096;12.664;2022-10-22T07:17:04;101073.84;;;12.70;100.00
13732;BME280;6937;56.096;12.664;2022-10-22T07:19:29;101052.63;;;12.67;100.00
13732;BME280;6937;56.096;12.664;2022-10-22T07:21:56;100999.84;;;12.79;100.00
13732;BME280;6937;56.096;12.664;2022-10-22T07:24:21;100884.28;;;12.82;100.00
13732;BME280;6937;56.096;12.664;2022-10-22T07:26:46;100818.56;;;12.87;100.00
13732;BME280;6937;56.096;12.664;2022-10-22T07:29:12;100745.44;;;12.85;100.00
13732;BME280;6937;56.096;12.664;2022-10-22T07:31:40;100723.81;;;12.87;100.00
13732;BME280;6937;56.096;12.664;2022-10-22T07:34:05;100678.00;;;12.79;100.00
13732;BME280;6937;56.096;12.664;2022-10-22T07:36:31;100658.16;;;12.81;100.00
13732;BME280;6937;56.096;12.664;2022-10-22T07:38:58;100733.50;;;12.78;100.00
13732;BME280;6937;56.096;12.664;2022-10-22T07:41:24;100700.16;;;12.38;100.00
13732;BME280;6937;56.096;12.664;2022-10-22T07:43:50;100761.75;;;12.82;100.00
13732;BME280;6937;56.096;12.664;2022-10-22T07:46:15;100674.59;;;12.34;100.00
13732;BME280;6937;56.096;12.664;2022-10-22T07:48:41;100709.09;;;12.81;100.00
13732;BME280;6937;56.096;12.664;2022-10-22T07:51:06;100636.44;;;12.84;100.00
13732;BME280;6937;56.096;12.664;2022-10-22T07:53:32;100539.94;;;12.73;100.00
13732;BME280;6937;56.096;12.664;2022-10-22T07:55:57;100461.50;;;12.60;100.00
13732;BME280;6937;56.096;12.664;2022-10-22T07:58:23;100318.53;;;12.80;100.00
13732;BME280;6937;56.096;12.664;2022-10-22T08:00:49;100302.44;;;12.90;100.00
13732;BME280;6937;56.096;12.664;2022-10-22T08:03:16;100243.44;;;12.90;100.00
13732;BME280;6937;56.096;12.664;2022-10-22T08:05:42;100154.66;;;12.74;100.00
13732;BME280;6937;56.096;12.664;2022-10-22T08:08:09;100086.78;;;12.92;100.00
13732;BME280;6937;56.096;12.664;2022-10-22T08:10:35;99622.19;;;12.63;100.00
13732;BME280;6937;56.096;12.664;2022-10-22T08:13:00;99721.59;;;12.97;100.00
13732;BME280;6937;56.096;12.664;2022-10-22T08:15:25;99603.50;;;12.89;100.00
13732;BME280;6937;56.096;12.664;2022-10-22T08:17:51;99780.72;;;12.95;100.00
13732;BME280;6937;56.096;12.664;2022-10-22T08:20:18;99481.38;;;12.51;100.00
13732;BME280;6937;56.096;12.664;2022-10-22T08:22:44;99320.97;;;12.98;100.00
13732;BME280;6937;56.096;12.664;2022-10-22T08:25:10;99305.88;;;12.55;100.00
13732;BME280;6937;56.096;12.664;2022-10-22T08:27:36;99501.41;;;12.65;100.00
13732;BME280;6937;56.096;12.664;2022-10-22T08:30:04;99597.44;;;13.04;100.00
13732;BME280;6937;56.096;12.664;2022-10-22T08:32:30;99542.72;;;12.97;100.00
13732;BME280;6937;56.096;12.664;2022-10-22T08:34:56;99576.59;;;12.98;100.00
13732;BME280;6937;56.096;12.664;2022-10-22T08:37:21;99607.34;;;13.04;100.00
13732;BME280;6937;56.096;12.664;2022-10-22T08:39:46;99369.81;;;12.50;100.00
13732;BME280;6937;56.096;12.664;2022-10-22T08:45:12;99370.06;;;12.90;100.00
13732;BME280;6937;56.096;12.664;2022-10-22T08:48:16;99580.44;;;12.96;100.00
13732;BME280;6937;56.096;12.664;2022-10-22T08:50:51;99164.97;;;13.02;100.00
13732;BME280;6937;56.096;12.664;2022-10-22T08:53:21;99376.16;;;13.08;100.00
13732;BME280;6937;56.096;12.664;2022-10-22T08:55:52;99338.34;;;13.12;100.00
13732;BME280;6937;56.096;12.664;2022-10-22T08:59:10;99284.38;;;13.15;100.00
13732;BME280;6937;56.096;12.664;2022-10-22T09:01:34;98938.50;;;13.21;100.00
13732;BME280;6937;56.096;12.664;2022-10-22T09:04:21;98495.56;;;13.24;100.00
13732;BME280;6937;56.096;12.664;2022-10-22T09:06:51;98334.84;;;13.23;100.00
13732;BME280;6937;56.096;12.664;2022-10-22T09:09:18;98200.75;;;13.23;100.00
13732;BME280;6937;56.096;12.664;2022-10-22T09:11:50;98031.72;;;12.95;100.00
13732;BME280;6937;56.096;12.664;2022-10-22T09:14:21;97892.03;;;12.83;100.00
13732;BME280;6937;56.096;12.664;2022-10-22T09:19:39;97811.31;;;13.34;100.00
13732;BME280;6937;56.096;12.664;2022-10-22T09:22:16;97591.19;;;13.29;100.00
13732;BME280;6937;56.096;12.664;2022-10-22T09:24:46;97420.00;;;13.26;100.00
13732;BME280;6937;56.096;12.664;2022-10-22T09:27:17;96743.44;;;12.77;100.00
13732;BME280;6937;56.096;12.664;2022-10-22T09:29:45;96526.00;;;13.22;100.00
13732;BME280;6937;56.096;12.664;2022-10-22T09:32:11;96252.28;;;13.18;100.00
13732;BME280;6937;56.096;12.664;2022-10-22T09:34:37;96151.31;;;13.24;100.00
13732;BME280;6937;56.096;12.664;2022-10-22T09:37:08;95978.34;;;12.71;100.00
13732;BME280;6937;56.096;12.664;2022-10-22T09:39:42;96029.09;;;13.23;100.00
13732;BME280;6937;56.096;12.664;2022-10-22T09:42:16;96470.28;;;13.24;100.00
13732;BME280;6937;56.096;12.664;2022-10-22T09:44:41;96630.50;;;13.10;100.00
13732;BME280;6937;56.096;12.664;2022-10-22T09:47:41;96536.63;;;13.28;100.00
13732;BME280;6937;56.096;12.664;2022-10-22T09:50:38;96494.41;;;13.24;100.00
13732;BME280;6937;56.096;12.664;2022-10-22T09:53:21;96676.81;;;13.17;100.00
13732;BME280;6937;56.096;12.664;2022-10-22T09:56:02;96763.38;;;12.63;100.00
13732;BME280;6937;56.096;12.664;2022-10-22T09:58:41;96794.28;;;13.20;100.00
13732;BME280;6937;56.096;12.664;2022-10-22T10:01:06;97002.81;;;13.18;100.00
13732;BME280;6937;56.096;12.664;2022-10-22T10:03:32;97016.59;;;13.22;100.00
13732;BME280;6937;56.096;12.664;2022-10-22T10:05:58;96890.59;;;12.72;98.02
13732;BME280;6937;56.096;12.664;2022-10-22T10:08:24;96940.50;;;13.23;94.30
13732;BME280;6937;56.096;12.664;2022-10-22T10:10:53;96913.44;;;13.24;91.08
13732;BME280;6937;56.096;12.664;2022-10-22T10:21:37;96991.16;;;13.31;76.79
13732;BME280;6937;56.096;12.664;2022-10-22T10:24:18;96800.94;;;13.18;74.30
13732;BME280;6937;56.096;12.664;2022-10-22T10:26:57;96696.66;;;13.28;71.99
13732;BME280;6937;56.096;12.664;2022-10-22T10:29:26;96608.44;;;13.26;70.49
13732;BME280;6937;56.096;12.664;2022-10-22T10:32:16;96552.47;;;13.18;67.78
13732;BME280;6937;56.096;12.664;2022-10-22T10:43:39;96371.56;;;13.09;61.60
13732;BME280;6937;56.096;12.664;2022-10-22T10:48:59;96277.75;;;13.09;59.84
13732;BME280;6937;56.096;12.664;2022-10-22T10:54:39;96259.97;;;13.03;57.81
13732;BME280;6937;56.096;12.664;2022-10-22T10:57:20;96184.00;;;12.97;57.37
13732;BME280;6937;56.096;12.664;2022-10-22T11:00:15;96216.66;;;12.83;56.77
13732;BME280;6937;56.096;12.664;2022-10-22T11:07:51;96979.06;;;12.90;55.39
13732;BME280;6937;56.096;12.664;2022-10-22T11:10:26;97157.78;;;12.96;55.23
13732;BME280;6937;56.096;12.664;2022-10-22T11:12:58;97150.75;;;12.95;54.64
13732;BME280;6937;56.096;12.664;2022-10-22T11:15:32;97092.81;;;12.94;54.31
13732;BME280;6937;56.096;12.664;2022-10-22T11:18:23;97067.88;;;13.00;54.67
13732;BME280;6937;56.096;12.664;2022-10-22T11:21:02;96959.50;;;12.90;54.20
13732;BME280;6937;56.096;12.664;2022-10-22T11:23:38;96901.53;;;12.95;54.30
13732;BME280;6937;56.096;12.664;2022-10-22T11:26:14;96896.38;;;12.94;53.44
13732;BME280;6937;56.096;12.664;2022-10-22T11:28:46;96886.19;;;12.84;53.09
13732;BME280;6937;56.096;12.664;2022-10-22T11:31:15;96888.75;;;12.48;52.41
13732;BME280;6937;56.096;12.664;2022-10-22T11:36:29;97035.72;;;12.94;52.32
13732;BME280;6937;56.096;12.664;2022-10-22T11:38:56;97094.47;;;12.95;51.93
13732;BME280;6937;56.096;12.664;2022-10-22T11:41:28;97663.69;;;12.94;51.85
13732;BME280;6937;56.096;12.664;2022-10-22T11:44:14;97593.38;;;12.92;52.44
13732;BME280;6937;56.096;12.664;2022-10-22T11:46:53;97706.78;;;12.99;52.29
13732;BME280;6937;56.096;12.664;2022-10-22T11:49:40;98066.25;;;13.04;52.29
13732;BME280;6937;56.096;12.664;2022-10-22T11:55:00;98184.31;;;13.11;51.18
13732;BME280;6937;56.096;12.664;2022-10-22T11:57:37;98358.31;;;13.06;51.18
13732;BME280;6937;56.096;12.664;2022-10-22T12:03:14;98266.44;;;12.68;51.34
13732;BME280;6937;56.096;12.664;2022-10-22T12:05:42;98206.28;;;12.56;56.98
13732;BME280;6937;56.096;12.664;2022-10-22T12:08:17;98388.63;;;12.77;50.66
13732;BME280;6937;56.096;12.664;2022-10-22T12:10:57;98490.59;;;13.36;49.47
13732;BME280;6937;56.096;12.664;2022-10-22T12:13:28;98472.81;;;13.20;52.01
13732;BME280;6937;56.096;12.664;2022-10-22T12:15:57;99929.00;;;13.52;51.53
13732;BME280;6937;56.096;12.664;2022-10-22T12:18:39;99845.38;;;13.29;50.79
13732;BME280;6937;56.096;12.664;2022-10-22T12:21:05;99657.75;;;13.00;51.32
13732;BME280;6937;56.096;12.664;2022-10-22T12:23:33;99495.94;;;12.92;51.62
13732;BME280;6937;56.096;12.664;2022-10-22T12:25:59;99493.63;;;13.48;52.73
13732;BME280;6937;56.096;12.664;2022-10-22T12:28:24;99415.09;;;13.46;54.18
13732;BME280;6937;56.096;12.664;2022-10-22T12:30:49;99426.19;;;13.51;55.37
13732;BME280;6937;56.096;12.664;2022-10-22T12:33:19;99390.25;;;13.36;57.47
13732;BME280;6937;56.096;12.664;2022-10-22T12:35:47;99369.00;;;13.51;57.47
13732;BME280;6937;56.096;12.664;2022-10-22T12:38:17;99341.31;;;13.59;59.46
13732;BME280;6937;56.096;12.664;2022-10-22T12:40:44;99338.66;;;13.59;61.84
13732;BME280;6937;56.096;12.664;2022-10-22T12:43:12;99218.88;;;13.49;65.04
13732;BME280;6937;56.096;12.664;2022-10-22T12:45:38;99187.13;;;13.61;68.24
13732;BME280;6937;56.096;12.664;2022-10-22T12:48:24;99131.81;;;13.60;73.23
13732;BME280;6937;56.096;12.664;2022-10-22T12:50:53;99025.66;;;13.01;76.71
13732;BME280;6937;56.096;12.664;2022-10-22T12:53:25;99095.88;;;13.69;77.84
13732;BME280;6937;56.096;12.664;2022-10-22T12:55:53;99091.19;;;13.71;82.31
13732;BME280;6937;56.096;12.664;2022-10-22T12:58:21;99005.22;;;13.32;85.12
13732;BME280;6937;56.096;12.664;2022-10-22T13:00:54;99036.50;;;13.64;94.97
13732;BME280;6937;56.096;12.664;2022-10-22T13:03:41;99050.72;;;13.73;98.88
13732;BME280;6937;56.096;12.664;2022-10-22T13:06:19;98968.13;;;13.44;100.00
13732;BME280;6937;56.096;12.664;2022-10-22T13:09:12;99036.72;;;13.93;100.00
13732;BME280;6937;56.096;12.664;2022-10-22T13:11:41;98952.66;;;13.46;100.00
13732;BME280;6937;56.096;12.664;2022-10-22T13:14:18;99011.56;;;13.94;100.00
13732;BME280;6937;56.096;12.664;2022-10-22T13:17:09;98959.19;;;13.51;100.00
13732;BME280;6937;56.096;12.664;2022-10-22T13:19:38;99025.56;;;13.74;100.00
13732;BME280;6937;56.096;12.664;2022-10-22T13:22:03;98978.00;;;13.43;100.00
13732;BME280;6937;56.096;12.664;2022-10-22T13:24:29;99040.16;;;13.79;100.00
13732;BME280;6937;56.096;12.664;2022-10-22T13:26:55;99059.63;;;13.73;100.00
13732;BME280;6937;56.096;12.664;2022-10-22T13:29:22;99051.22;;;13.76;100.00
13732;BME280;6937;56.096;12.664;2022-10-22T13:31:50;99047.72;;;13.76;100.00
13732;BME280;6937;56.096;12.664;2022-10-22T13:34:18;99072.19;;;13.81;100.00
13732;BME280;6937;56.096;12.664;2022-10-22T13:36:44;99060.97;;;13.69;100.00
13732;BME280;6937;56.096;12.664;2022-10-22T13:39:28;99052.06;;;13.77;100.00
13732;BME280;6937;56.096;12.664;2022-10-22T13:41:53;99030.81;;;13.59;100.00
13732;BME280;6937;56.096;12.664;2022-10-22T13:44:19;99018.94;;;13.45;100.00
13732;BME280;6937;56.096;12.664;2022-10-22T13:46:45;99031.94;;;13.65;100.00
13732;BME280;6937;56.096;12.664;2022-10-22T13:49:16;99025.22;;;13.69;100.00
13732;BME280;6937;56.096;12.664;2022-10-22T13:51:42;99005.94;;;13.65;100.00
13732;BME280;6937;56.096;12.664;2022-10-22T13:54:15;98925.78;;;13.23;100.00